createdAt,value
2023-02-21T00:00:15.101Z,9.63
2023-02-21T00:03:22.859Z,9.61
2023-02-21T00:06:09.198Z,9.58
2023-02-21T00:08:55.889Z,9.56
2023-02-21T00:11:42.557Z,9.55
2023-02-21T00:14:29.087Z,9.54
2023-02-21T00:17:15.311Z,9.53
2023-02-21T00:20:01.612Z,9.53
2023-02-21T00:22:48.258Z,9.54
2023-02-21T00:25:35.447Z,9.55
2023-02-21T00:28:22.317Z,9.56
2023-02-21T00:31:08.745Z,9.57
2023-02-21T00:33:55.997Z,9.56
2023-02-21T00:36:42.446Z,9.57
2023-02-21T00:39:28.948Z,9.58
2023-02-21T00:42:15.104Z,9.57
2023-02-21T00:45:01.973Z,9.57
2023-02-21T00:47:48.256Z,9.57
2023-02-21T00:50:35.190Z,9.56
2023-02-21T00:53:22.159Z,9.56
2023-02-21T00:56:08.422Z,9.55
2023-02-21T00:58:54.675Z,9.55
2023-02-21T01:01:41.071Z,9.55
2023-02-21T01:04:28.895Z,9.54
2023-02-21T01:07:15.277Z,9.53
2023-02-21T01:10:02.748Z,9.52
2023-02-21T01:12:49.176Z,9.50
2023-02-21T01:15:37.235Z,9.47
2023-02-21T01:18:23.777Z,9.45
2023-02-21T01:21:10.092Z,9.40
2023-02-21T01:23:56.377Z,9.34
2023-02-21T01:26:42.759Z,9.27
2023-02-21T01:29:29.465Z,9.17
2023-02-21T01:32:16.142Z,9.06
2023-02-21T01:35:02.720Z,8.98
2023-02-21T01:37:49.087Z,8.89
2023-02-21T01:40:36.767Z,8.78
2023-02-21T01:43:33.356Z,8.71
2023-02-21T01:46:20.171Z,8.64
2023-02-21T01:49:10.412Z,8.60
2023-02-21T01:52:00.295Z,8.55
2023-02-21T01:54:50.975Z,8.48
2023-02-21T01:57:38.620Z,8.40
2023-02-21T02:00:30.493Z,8.35
2023-02-21T02:03:17.754Z,8.31
2023-02-21T02:06:09.363Z,8.27
2023-02-21T02:08:56.275Z,8.23
2023-02-21T02:12:01.393Z,8.20
2023-02-21T02:15:11.928Z,8.18
2023-02-21T02:17:53.703Z,8.14
2023-02-21T02:20:31.664Z,8.11
2023-02-21T02:23:31.022Z,8.08
2023-02-21T02:26:30.975Z,8.07
2023-02-21T02:29:18.986Z,8.05
2023-02-21T02:32:15.058Z,8.01
2023-02-21T02:34:53.867Z,7.99
2023-02-21T02:37:29.209Z,7.98
2023-02-21T02:40:04.001Z,7.96
2023-02-21T02:42:44.090Z,7.94
2023-02-21T02:45:17.816Z,7.94
2023-02-21T02:47:54.866Z,7.94
2023-02-21T02:50:24.316Z,7.93
2023-02-21T02:52:54.788Z,7.93
2023-02-21T02:55:34.835Z,7.93
2023-02-21T02:58:04.639Z,7.92
2023-02-21T03:00:35.845Z,7.92
2023-02-21T03:03:23.192Z,7.93
2023-02-21T03:06:05.873Z,7.94
2023-02-21T03:08:45.994Z,7.94
2023-02-21T03:11:18.123Z,7.94
2023-02-21T03:13:50.961Z,7.94
2023-02-21T03:16:26.919Z,7.95
2023-02-21T03:19:01.326Z,7.95
2023-02-21T03:21:34.105Z,7.96
2023-02-21T03:24:05.228Z,7.97
2023-02-21T03:26:39.651Z,7.98
2023-02-21T03:29:24.064Z,7.98
2023-02-21T03:31:58.251Z,7.99
2023-02-21T03:34:26.642Z,7.99
2023-02-21T03:36:56.212Z,7.99
2023-02-21T03:39:24.620Z,7.99
2023-02-21T03:41:53.115Z,8.01
2023-02-21T03:44:21.350Z,8.01
2023-02-21T03:46:50.468Z,8.02
2023-02-21T03:49:18.857Z,8.04
2023-02-21T03:51:47.044Z,8.05
2023-02-21T03:54:15.322Z,8.05
2023-02-21T03:56:46.418Z,8.06
2023-02-21T03:59:23.925Z,8.07
2023-02-21T04:01:52.102Z,8.08
2023-02-21T04:04:21.275Z,8.07
2023-02-21T04:06:56.421Z,8.07
2023-02-21T04:09:25.856Z,8.08
2023-02-21T04:11:54.158Z,8.07
2023-02-21T04:14:22.640Z,8.08
2023-02-21T04:16:51.216Z,8.07
2023-02-21T04:19:19.589Z,8.08
2023-02-21T04:21:48.480Z,8.08
2023-02-21T04:24:17.330Z,8.08
2023-02-21T04:26:45.551Z,8.09
2023-02-21T04:29:14.002Z,8.08
2023-02-21T04:31:42.706Z,8.08
2023-02-21T04:34:15.438Z,8.08
2023-02-21T04:36:45.483Z,8.09
2023-02-21T04:39:14.770Z,8.09
2023-02-21T04:41:43.005Z,8.08
2023-02-21T04:44:11.276Z,8.09
2023-02-21T04:46:39.558Z,8.09
2023-02-21T04:49:11.646Z,8.09
2023-02-21T04:51:39.798Z,8.09
2023-02-21T04:54:08.013Z,8.10
2023-02-21T04:56:36.808Z,8.09
2023-02-21T04:59:05.087Z,8.09
2023-02-21T05:01:33.304Z,8.10
2023-02-21T05:04:02.291Z,8.09
2023-02-21T05:06:31.523Z,8.09
2023-02-21T05:09:00.157Z,8.09
2023-02-21T05:11:28.597Z,8.08
2023-02-21T05:13:56.752Z,8.08
2023-02-21T05:16:25.045Z,8.08
2023-02-21T05:18:53.290Z,8.08
2023-02-21T05:21:21.610Z,8.08
2023-02-21T05:23:55.318Z,8.07
2023-02-21T05:26:25.996Z,8.07
2023-02-21T05:28:54.466Z,8.07
2023-02-21T05:31:22.743Z,8.07
2023-02-21T05:33:51.006Z,8.07
2023-02-21T05:36:19.317Z,8.07
2023-02-21T05:38:49.749Z,8.07
2023-02-21T05:41:18.400Z,8.08
2023-02-21T05:43:48.529Z,8.08
2023-02-21T05:46:20.359Z,8.08
2023-02-21T05:48:48.819Z,8.08
2023-02-21T05:51:17.477Z,8.08
2023-02-21T05:53:45.807Z,8.07
2023-02-21T05:56:14.726Z,8.08
2023-02-21T05:58:42.919Z,8.08
2023-02-21T06:01:11.095Z,8.08
2023-02-21T06:03:39.368Z,8.08
2023-02-21T06:06:07.865Z,8.09
2023-02-21T06:08:43.729Z,8.11
2023-02-21T06:11:12.180Z,8.10
2023-02-21T06:13:40.920Z,8.11
2023-02-21T06:16:09.175Z,8.12
2023-02-21T06:18:37.329Z,8.12
2023-02-21T06:21:06.084Z,8.14
2023-02-21T06:23:34.304Z,8.15
2023-02-21T06:26:02.550Z,8.15
2023-02-21T06:28:31.446Z,8.17
2023-02-21T06:30:59.989Z,8.18
2023-02-21T06:33:28.496Z,8.18
2023-02-21T06:35:56.933Z,8.18
2023-02-21T06:38:25.168Z,8.19
2023-02-21T06:40:53.346Z,8.21
2023-02-21T06:43:21.711Z,8.19
2023-02-21T06:45:49.895Z,8.19
2023-02-21T06:48:18.556Z,8.20
2023-02-21T06:50:46.873Z,8.22
2023-02-21T06:53:15.422Z,8.24
2023-02-21T06:55:43.639Z,8.27
2023-02-21T06:58:11.868Z,8.27
2023-02-21T07:00:40.194Z,8.29
2023-02-21T07:03:08.341Z,8.30
2023-02-21T07:05:37.808Z,8.33
2023-02-21T07:08:06.300Z,8.34
2023-02-21T07:10:34.613Z,8.36
2023-02-21T07:13:02.924Z,8.38
2023-02-21T07:15:31.107Z,8.42
2023-02-21T07:17:59.273Z,8.49
2023-02-21T07:20:27.427Z,8.56
2023-02-21T07:22:55.807Z,8.61
2023-02-21T07:25:24.382Z,8.67
2023-02-21T07:27:52.578Z,8.74
2023-02-21T07:30:21.123Z,8.81
2023-02-21T07:32:49.354Z,8.88
2023-02-21T07:35:17.911Z,8.95
2023-02-21T07:37:46.097Z,8.96
2023-02-21T07:40:14.316Z,8.93
2023-02-21T07:42:43.269Z,8.92
2023-02-21T07:45:12.209Z,8.91
2023-02-21T07:47:40.400Z,8.92
2023-02-21T07:50:09.428Z,8.93
2023-02-21T07:52:37.825Z,8.97
2023-02-21T07:55:07.123Z,9.01
2023-02-21T07:57:35.349Z,9.03
2023-02-21T08:00:04.196Z,9.05
2023-02-21T08:02:41.157Z,9.06
2023-02-21T08:05:10.202Z,9.06
2023-02-21T08:07:38.455Z,9.06
2023-02-21T08:10:07.869Z,9.05
2023-02-21T08:12:36.134Z,9.04
2023-02-21T08:15:05.868Z,9.02
2023-02-21T08:17:34.030Z,9.02
2023-02-21T08:20:05.960Z,9.02
2023-02-21T08:22:35.746Z,9.02
2023-02-21T08:25:04.753Z,9.03
2023-02-21T08:27:32.972Z,9.04
2023-02-21T08:30:01.447Z,9.04
2023-02-21T08:32:29.733Z,9.04
2023-02-21T08:34:58.008Z,9.05
2023-02-21T08:37:32.142Z,9.03
2023-02-21T08:40:00.708Z,9.01
2023-02-21T08:42:28.894Z,9.00
2023-02-21T08:44:57.201Z,9.01
2023-02-21T08:47:25.386Z,9.03
2023-02-21T08:49:53.599Z,9.06
2023-02-21T08:52:21.818Z,9.14
2023-02-21T08:54:49.998Z,9.26
2023-02-21T08:57:18.286Z,9.35
2023-02-21T08:59:46.458Z,9.40
2023-02-21T09:02:19.157Z,9.47
2023-02-21T09:04:47.720Z,9.54
2023-02-21T09:07:18.183Z,9.62
2023-02-21T09:09:46.673Z,9.69
2023-02-21T09:12:15.277Z,9.72
2023-02-21T09:14:44.101Z,9.74
2023-02-21T09:17:13.633Z,9.78
2023-02-21T09:19:42.146Z,9.85
2023-02-21T09:22:10.864Z,9.93
2023-02-21T09:24:39.222Z,10.06
2023-02-21T09:27:07.449Z,10.22
2023-02-21T09:29:45.797Z,10.30
2023-02-21T09:32:14.888Z,10.36
2023-02-21T09:34:43.101Z,10.40
2023-02-21T09:37:11.299Z,10.42
2023-02-21T09:39:39.663Z,10.46
2023-02-21T09:42:10.616Z,10.49
2023-02-21T09:44:38.862Z,10.47
2023-02-21T09:47:09.704Z,10.44
2023-02-21T09:49:41.381Z,10.43
2023-02-21T09:52:17.522Z,10.42
2023-02-21T09:54:51.877Z,10.46
2023-02-21T09:57:20.129Z,10.53
2023-02-21T09:59:49.813Z,10.61
2023-02-21T10:02:38.613Z,10.70
2023-02-21T10:05:22.389Z,10.82
2023-02-21T10:07:59.330Z,11.01
2023-02-21T10:10:32.959Z,11.17
2023-02-21T10:13:10.413Z,11.26
2023-02-21T10:15:44.401Z,11.33
2023-02-21T10:18:25.239Z,11.42
2023-02-21T10:20:57.150Z,11.48
2023-02-21T10:23:36.595Z,11.51
2023-02-21T10:26:08.822Z,11.46
2023-02-21T10:28:37.902Z,11.37
2023-02-21T10:31:10.865Z,11.24
2023-02-21T10:33:40.005Z,11.10
2023-02-21T10:36:18.743Z,10.92
2023-02-21T10:38:57.809Z,10.70
2023-02-21T10:41:30.410Z,10.55
2023-02-21T10:44:03.930Z,10.40
2023-02-21T10:46:39.213Z,10.29
2023-02-21T10:49:28.230Z,10.20
2023-02-21T10:52:11.268Z,10.17
2023-02-21T10:54:39.899Z,10.19
2023-02-21T10:57:10.489Z,10.22
2023-02-21T10:59:42.973Z,10.28
2023-02-21T11:02:30.203Z,10.34
2023-02-21T11:05:09.310Z,10.38
2023-02-21T11:07:37.774Z,10.44
2023-02-21T11:10:26.689Z,10.54
2023-02-21T11:13:05.613Z,10.65
2023-02-21T11:15:34.462Z,10.71
2023-02-21T11:18:22.680Z,10.71
2023-02-21T11:20:52.871Z,10.69
2023-02-21T11:23:26.448Z,10.69
2023-02-21T11:26:05.297Z,10.73
2023-02-21T11:28:38.486Z,10.80
2023-02-21T11:31:15.691Z,10.89
2023-02-21T11:33:51.812Z,10.97
2023-02-21T11:36:26.204Z,11.01
2023-02-21T11:39:04.462Z,11.03
2023-02-21T11:41:38.157Z,11.04
2023-02-21T11:44:27.247Z,11.03
2023-02-21T11:47:06.772Z,11.01
2023-02-21T11:49:49.299Z,10.96
2023-02-21T11:52:24.189Z,10.89
2023-02-21T11:54:52.339Z,10.81
2023-02-21T11:57:31.151Z,10.78
2023-02-21T12:00:11.607Z,10.77
2023-02-21T12:03:13.654Z,10.80
2023-02-21T12:05:51.660Z,10.89
2023-02-21T12:08:35.901Z,10.96
2023-02-21T12:11:16.792Z,10.96
2023-02-21T12:13:56.252Z,11.01
2023-02-21T12:16:36.223Z,11.06
2023-02-21T12:19:27.184Z,11.07
2023-02-21T12:22:03.274Z,11.08
2023-02-21T12:24:46.198Z,11.12
2023-02-21T12:27:22.302Z,11.15
2023-02-21T12:30:07.110Z,11.18
2023-02-21T12:32:48.876Z,11.20
2023-02-21T12:35:37.931Z,11.24
2023-02-21T12:38:13.940Z,11.30
2023-02-21T12:40:54.075Z,11.33
2023-02-21T12:43:35.933Z,11.33
2023-02-21T12:46:12.736Z,11.33
2023-02-21T12:48:44.107Z,11.34
2023-02-21T12:51:17.490Z,11.31
2023-02-21T12:53:52.497Z,11.27
2023-02-21T12:56:37.884Z,11.24
2023-02-21T12:59:15.318Z,11.21
2023-02-21T13:01:48.401Z,11.23
2023-02-21T13:04:27.928Z,11.27
2023-02-21T13:07:01.389Z,11.37
2023-02-21T13:09:34.632Z,11.50
2023-02-21T13:12:08.715Z,11.60
2023-02-21T13:14:43.334Z,11.65
2023-02-21T13:17:16.670Z,11.66
2023-02-21T13:19:49.467Z,11.64
2023-02-21T13:22:36.867Z,11.62
2023-02-21T13:25:17.796Z,11.61
2023-02-21T13:28:01.442Z,11.59
2023-02-21T13:30:41.043Z,11.56
2023-02-21T13:33:24.788Z,11.57
2023-02-21T13:35:53.504Z,11.55
2023-02-21T13:38:21.951Z,11.56
2023-02-21T13:40:53.652Z,11.53
2023-02-21T13:43:28.383Z,11.48
2023-02-21T13:46:46.426Z,11.44
2023-02-21T13:49:43.652Z,11.34
2023-02-21T13:52:35.314Z,11.28
2023-02-21T13:55:20.592Z,11.24
2023-02-21T13:57:53.446Z,11.20
2023-02-21T14:00:46.795Z,11.16
2023-02-21T14:03:30.640Z,11.11
2023-02-21T14:06:37.659Z,11.08
2023-02-21T14:09:11.921Z,11.04
2023-02-21T14:11:48.537Z,11.00
2023-02-21T14:14:24.010Z,10.96
2023-02-21T14:16:58.931Z,10.92
2023-02-21T14:19:34.969Z,10.88
2023-02-21T14:22:11.682Z,10.84
2023-02-21T14:24:43.761Z,10.78
2023-02-21T14:27:34.188Z,10.73
2023-02-21T14:30:30.743Z,10.67
2023-02-21T14:33:14.926Z,10.60
2023-02-21T14:35:56.814Z,10.55
2023-02-21T14:38:29.188Z,10.53
2023-02-21T14:41:14.475Z,10.53
2023-02-21T14:44:05.694Z,10.54
2023-02-21T14:46:59.700Z,10.54
2023-02-21T14:50:06.162Z,10.55
2023-02-21T14:52:58.009Z,10.59
2023-02-21T14:56:06.568Z,10.61
2023-02-21T14:58:59.542Z,10.63
2023-02-21T15:01:43.608Z,10.62
2023-02-21T15:04:20.793Z,10.60
2023-02-21T15:07:05.268Z,10.56
2023-02-21T15:09:33.491Z,10.52
2023-02-21T15:12:02.552Z,10.47
2023-02-21T15:14:36.277Z,10.42
2023-02-21T15:17:16.517Z,10.36
2023-02-21T15:19:44.822Z,10.30
2023-02-21T15:22:29.874Z,10.27
2023-02-21T15:25:13.461Z,10.23
2023-02-21T15:27:57.692Z,10.20
2023-02-21T15:30:27.990Z,10.16
2023-02-21T15:33:04.639Z,10.12
2023-02-21T15:35:36.122Z,10.07
2023-02-21T15:38:09.004Z,10.03
2023-02-21T15:40:37.676Z,10.00
2023-02-21T15:43:07.652Z,9.96
2023-02-21T15:45:44.325Z,9.93
2023-02-21T15:48:12.856Z,9.88
2023-02-21T15:50:44.723Z,9.83
2023-02-21T15:53:19.010Z,9.78
2023-02-21T15:55:48.418Z,9.76
2023-02-21T15:58:20.269Z,9.74
2023-02-21T16:00:49.556Z,9.71
2023-02-21T16:03:33.418Z,9.67
2023-02-21T16:06:22.318Z,9.62
2023-02-21T16:09:03.797Z,9.54
2023-02-21T16:11:45.403Z,9.47
2023-02-21T16:14:24.631Z,9.43
2023-02-21T16:17:05.585Z,9.40
2023-02-21T16:19:35.900Z,9.36
2023-02-21T16:22:24.305Z,9.29
2023-02-21T16:25:06.636Z,9.20
2023-02-21T16:27:34.991Z,9.12
2023-02-21T16:30:04.737Z,9.05
2023-02-21T16:32:34.896Z,9.01
2023-02-21T16:35:03.242Z,8.96
2023-02-21T16:37:31.589Z,8.91
2023-02-21T16:39:59.876Z,8.86
2023-02-21T16:42:28.000Z,8.85
2023-02-21T16:44:57.143Z,8.85
2023-02-21T16:47:25.330Z,8.84
2023-02-21T16:49:53.596Z,8.83
2023-02-21T16:52:21.924Z,8.82
2023-02-21T16:54:50.091Z,8.81
2023-02-21T16:57:18.591Z,8.79
2023-02-21T16:59:46.842Z,8.78
2023-02-21T17:02:15.066Z,8.75
2023-02-21T17:04:43.277Z,8.71
2023-02-21T17:07:11.423Z,8.69
2023-02-21T17:09:41.068Z,8.68
2023-02-21T17:12:11.364Z,8.66
2023-02-21T17:14:39.532Z,8.63
2023-02-21T17:17:07.744Z,8.60
2023-02-21T17:19:35.904Z,8.58
2023-02-21T17:22:04.105Z,8.57
2023-02-21T17:24:32.302Z,8.56
2023-02-21T17:27:01.550Z,8.55
2023-02-21T17:29:29.908Z,8.54
2023-02-21T17:31:58.265Z,8.52
2023-02-21T17:34:26.433Z,8.50
2023-02-21T17:36:54.563Z,8.47
2023-02-21T17:39:22.712Z,8.44
2023-02-21T17:41:52.000Z,8.43
2023-02-21T17:44:20.834Z,8.42
2023-02-21T17:46:50.068Z,8.39
2023-02-21T17:49:20.563Z,8.37
2023-02-21T17:51:49.082Z,8.35
2023-02-21T17:54:18.718Z,8.34
2023-02-21T17:56:47.576Z,8.33
2023-02-21T17:59:16.382Z,8.31
2023-02-21T18:01:45.037Z,8.29
2023-02-21T18:04:13.904Z,8.27
2023-02-21T18:06:42.266Z,8.22
2023-02-21T18:09:10.589Z,8.20
2023-02-21T18:11:38.847Z,8.17
2023-02-21T18:14:07.127Z,8.15
2023-02-21T18:16:35.284Z,8.13
2023-02-21T18:19:03.456Z,8.10
2023-02-21T18:21:31.785Z,8.08
2023-02-21T18:24:00.000Z,8.06
2023-02-21T18:26:28.466Z,8.04
2023-02-21T18:28:56.753Z,8.02
2023-02-21T18:31:24.998Z,8.00
2023-02-21T18:33:53.156Z,7.97
2023-02-21T18:36:21.369Z,7.94
2023-02-21T18:38:49.601Z,7.91
2023-02-21T18:41:19.909Z,7.89
2023-02-21T18:43:48.529Z,7.86
2023-02-21T18:46:18.846Z,7.83
2023-02-21T18:48:49.028Z,7.79
2023-02-21T18:51:19.258Z,7.75
2023-02-21T18:53:48.945Z,7.73
2023-02-21T18:56:19.074Z,7.69
2023-02-21T18:58:47.629Z,7.67
2023-02-21T19:01:18.157Z,7.65
2023-02-21T19:03:46.820Z,7.62
2023-02-21T19:06:17.091Z,7.60
2023-02-21T19:08:46.006Z,7.57
2023-02-21T19:11:15.064Z,7.55
2023-02-21T19:13:46.482Z,7.53
2023-02-21T19:16:14.861Z,7.51
2023-02-21T19:18:43.094Z,7.48
2023-02-21T19:21:11.948Z,7.46
2023-02-21T19:23:40.718Z,7.44
2023-02-21T19:26:09.098Z,7.41
2023-02-21T19:28:39.565Z,7.39
2023-02-21T19:31:09.780Z,7.38
2023-02-21T19:33:38.065Z,7.37
2023-02-21T19:36:08.614Z,7.36
2023-02-21T19:38:37.097Z,7.34
2023-02-21T19:41:07.155Z,7.33
2023-02-21T19:43:35.796Z,7.32
2023-02-21T19:46:04.892Z,7.32
2023-02-21T19:48:33.307Z,7.32
2023-02-21T19:51:01.843Z,7.32
2023-02-21T19:53:30.081Z,7.32
2023-02-21T19:55:58.304Z,7.32
2023-02-21T19:58:26.747Z,7.32
2023-02-21T20:00:55.127Z,7.33
2023-02-21T20:03:23.398Z,7.34
2023-02-21T20:05:52.358Z,7.34
2023-02-21T20:08:20.616Z,7.35
2023-02-21T20:10:49.190Z,7.34
2023-02-21T20:13:19.669Z,7.32
2023-02-21T20:15:50.656Z,7.31
2023-02-21T20:18:19.325Z,7.31
2023-02-21T20:20:48.813Z,7.30
2023-02-21T20:23:18.215Z,7.31
2023-02-21T20:25:46.450Z,7.29
2023-02-21T20:28:14.768Z,7.28
2023-02-21T20:30:43.224Z,7.26
2023-02-21T20:33:11.591Z,7.24
2023-02-21T20:35:39.883Z,7.22
2023-02-21T20:38:09.052Z,7.21
2023-02-21T20:40:37.315Z,7.20
2023-02-21T20:43:05.608Z,7.20
2023-02-21T20:45:34.057Z,7.19
2023-02-21T20:48:02.288Z,7.17
2023-02-21T20:50:30.538Z,7.17
2023-02-21T20:52:58.770Z,7.16
2023-02-21T20:55:27.065Z,7.15
2023-02-21T20:57:55.292Z,7.15
2023-02-21T21:00:23.856Z,7.14
2023-02-21T21:02:52.632Z,7.13
2023-02-21T21:05:20.857Z,7.12
2023-02-21T21:07:49.006Z,7.13
2023-02-21T21:10:18.217Z,7.13
2023-02-21T21:12:48.711Z,7.12
2023-02-21T21:15:17.587Z,7.12
2023-02-21T21:17:47.483Z,7.12
2023-02-21T21:20:18.796Z,7.12
2023-02-21T21:22:47.844Z,7.12
2023-02-21T21:25:16.732Z,7.11
2023-02-21T21:27:45.852Z,7.12
2023-02-21T21:30:21.672Z,7.13
2023-02-21T21:32:49.908Z,7.12
2023-02-21T21:35:19.499Z,7.10
2023-02-21T21:37:48.246Z,7.09
2023-02-21T21:40:16.812Z,7.09
2023-02-21T21:42:49.702Z,7.09
2023-02-21T21:45:20.090Z,7.07
2023-02-21T21:47:50.359Z,7.04
2023-02-21T21:50:20.787Z,7.02
2023-02-21T21:52:51.972Z,7.01
2023-02-21T21:55:23.648Z,7.02
2023-02-21T21:57:52.827Z,7.01
2023-02-21T22:00:23.297Z,6.99
2023-02-21T22:02:56.302Z,6.99
2023-02-21T22:05:25.321Z,6.99
2023-02-21T22:07:53.868Z,6.98
2023-02-21T22:10:23.682Z,7.00
2023-02-21T22:12:53.351Z,7.01
2023-02-21T22:15:22.966Z,7.00
2023-02-21T22:17:51.497Z,6.99
2023-02-21T22:20:27.479Z,6.97
2023-02-21T22:22:57.898Z,6.95
2023-02-21T22:25:29.380Z,6.92
2023-02-21T22:28:02.167Z,6.89
2023-02-21T22:30:30.819Z,6.88
2023-02-21T22:32:59.055Z,6.87
2023-02-21T22:35:27.792Z,6.86
2023-02-21T22:37:57.502Z,6.83
2023-02-21T22:40:27.315Z,6.82
2023-02-21T22:42:58.591Z,6.81
2023-02-21T22:45:28.832Z,6.80
2023-02-21T22:47:57.067Z,6.79
2023-02-21T22:50:26.054Z,6.77
2023-02-21T22:52:56.192Z,6.76
2023-02-21T22:55:26.205Z,6.76
2023-02-21T22:57:56.918Z,6.73
2023-02-21T23:00:32.404Z,6.72
2023-02-21T23:03:01.942Z,6.71
2023-02-21T23:05:30.653Z,6.69
2023-02-21T23:07:58.812Z,6.67
2023-02-21T23:10:28.330Z,6.66
2023-02-21T23:12:59.269Z,6.64
2023-02-21T23:15:28.068Z,6.65
2023-02-21T23:17:56.225Z,6.66
2023-02-21T23:20:26.339Z,6.67
2023-02-21T23:22:56.751Z,6.67
2023-02-21T23:25:26.539Z,6.68
2023-02-21T23:27:56.875Z,6.67
2023-02-21T23:30:26.402Z,6.67
2023-02-21T23:32:55.405Z,6.67
2023-02-21T23:35:23.609Z,6.67
2023-02-21T23:37:52.548Z,6.67
2023-02-21T23:40:24.081Z,6.67
2023-02-21T23:42:54.090Z,6.66
2023-02-21T23:45:25.702Z,6.65
2023-02-21T23:47:54.241Z,6.63
2023-02-21T23:50:29.598Z,6.60
2023-02-21T23:52:58.545Z,6.60
2023-02-21T23:55:29.146Z,6.58
2023-02-21T23:57:59.200Z,6.58
